createdAt,value
2018-09-27T00:00:12.890Z,3.30
2018-09-27T00:02:41.486Z,2.58
2018-09-27T00:05:10.089Z,2.70
2018-09-27T00:07:38.596Z,2.50
2018-09-27T00:10:07.425Z,2.58
2018-09-27T00:12:35.832Z,2.52
2018-09-27T00:15:05.425Z,4.67
2018-09-27T00:17:33.911Z,3.67
2018-09-27T00:20:02.399Z,2.50
2018-09-27T00:22:31.070Z,2.30
2018-09-27T00:24:59.643Z,2.60
2018-09-27T00:27:27.980Z,2.72
2018-09-27T00:29:56.784Z,2.75
2018-09-27T00:32:25.528Z,3.33
2018-09-27T00:34:54.156Z,2.80
2018-09-27T00:37:22.976Z,2.58
2018-09-27T00:39:51.518Z,2.87
2018-09-27T00:42:20.036Z,2.80
2018-09-27T00:44:48.484Z,2.80
2018-09-27T00:47:17.050Z,2.60
2018-09-27T00:49:45.418Z,3.00
2018-09-27T00:52:13.859Z,3.12
2018-09-27T00:54:42.284Z,2.65
2018-09-27T00:57:12.175Z,2.70
2018-09-27T00:59:40.880Z,2.58
2018-09-27T01:02:09.315Z,4.33
2018-09-27T01:04:37.795Z,2.65
2018-09-27T01:07:06.423Z,3.30
2018-09-27T01:09:34.994Z,2.83
2018-09-27T01:12:03.655Z,2.50
2018-09-27T01:14:32.539Z,2.45
2018-09-27T01:17:02.080Z,2.87
2018-09-27T01:19:35.093Z,2.60
2018-09-27T01:22:03.953Z,2.70
2018-09-27T01:24:32.601Z,2.50
2018-09-27T01:27:01.255Z,3.05
2018-09-27T01:29:30.073Z,2.08
2018-09-27T01:31:58.667Z,2.65
2018-09-27T01:34:27.158Z,2.27
2018-09-27T01:36:56.177Z,2.50
2018-09-27T01:39:25.093Z,1.92
2018-09-27T01:41:53.725Z,2.67
2018-09-27T01:44:27.818Z,2.60
2018-09-27T01:46:56.316Z,2.70
2018-09-27T01:49:24.895Z,2.60
2018-09-27T01:51:56.348Z,2.83
2018-09-27T01:54:25.141Z,2.50
2018-09-27T01:56:58.440Z,3.30
2018-09-27T01:59:26.941Z,2.75
2018-09-27T02:01:55.775Z,2.90
2018-09-27T02:04:25.557Z,2.55
2018-09-27T02:06:54.342Z,2.52
2018-09-27T02:09:23.050Z,2.37
2018-09-27T02:11:51.669Z,2.95
2018-09-27T02:14:20.484Z,2.60
2018-09-27T02:16:49.549Z,2.65
2018-09-27T02:19:18.380Z,3.12
2018-09-27T02:21:47.424Z,2.42
2018-09-27T02:24:16.200Z,2.98
2018-09-27T02:26:44.784Z,2.22
2018-09-27T02:29:13.222Z,2.70
2018-09-27T02:31:41.744Z,2.83
2018-09-27T02:34:10.124Z,2.35
2018-09-27T02:36:38.520Z,2.60
2018-09-27T02:39:08.741Z,2.45
2018-09-27T02:41:37.304Z,2.42
2018-09-27T02:44:06.045Z,3.22
2018-09-27T02:46:34.573Z,2.50
2018-09-27T02:49:03.166Z,2.50
2018-09-27T02:51:31.689Z,2.50
2018-09-27T02:54:00.404Z,3.05
2018-09-27T02:56:29.115Z,2.62
2018-09-27T02:58:57.691Z,2.60
2018-09-27T03:01:26.088Z,2.85
2018-09-27T03:03:54.547Z,2.90
2018-09-27T03:06:23.131Z,3.37
2018-09-27T03:08:51.566Z,2.50
2018-09-27T03:11:20.214Z,2.60
2018-09-27T03:13:48.807Z,2.15
2018-09-27T03:16:17.975Z,2.72
2018-09-27T03:18:47.067Z,2.70
2018-09-27T03:21:15.726Z,2.55
2018-09-27T03:23:44.314Z,3.00
2018-09-27T03:26:12.841Z,2.70
2018-09-27T03:28:41.451Z,2.47
2018-09-27T03:31:10.141Z,2.50
2018-09-27T03:33:38.797Z,2.50
2018-09-27T03:36:07.236Z,2.80
2018-09-27T03:38:36.755Z,2.70
2018-09-27T03:41:05.504Z,2.42
2018-09-27T03:43:33.880Z,2.60
2018-09-27T03:46:02.297Z,2.98
2018-09-27T03:48:30.757Z,2.55
2018-09-27T03:50:59.244Z,2.70
2018-09-27T03:53:27.509Z,3.00
2018-09-27T03:55:55.931Z,2.60
2018-09-27T03:58:24.243Z,2.42
2018-09-27T04:00:52.599Z,2.72
2018-09-27T04:03:21.040Z,2.52
2018-09-27T04:05:49.338Z,2.40
2018-09-27T04:08:17.739Z,2.45
2018-09-27T04:10:46.218Z,2.80
2018-09-27T04:13:15.878Z,2.65
2018-09-27T04:15:44.426Z,2.33
2018-09-27T04:18:12.877Z,2.83
2018-09-27T04:20:47.323Z,2.75
2018-09-27T04:23:17.238Z,2.50
2018-09-27T04:25:46.099Z,3.50
2018-09-27T04:28:14.350Z,2.60
2018-09-27T04:30:42.979Z,2.60
2018-09-27T04:33:11.354Z,2.50
2018-09-27T04:35:39.814Z,2.33
2018-09-27T04:38:08.228Z,2.55
2018-09-27T04:40:36.988Z,2.40
2018-09-27T04:43:05.926Z,2.70
2018-09-27T04:45:34.340Z,2.98
2018-09-27T04:48:02.670Z,6.80
2018-09-27T04:50:30.999Z,4.40
2018-09-27T04:52:59.292Z,11.60
2018-09-27T04:55:27.807Z,7.67
2018-09-27T04:57:56.124Z,4.42
2018-09-27T05:00:24.409Z,4.67
2018-09-27T05:02:52.711Z,4.60
2018-09-27T05:05:20.994Z,4.35
2018-09-27T05:07:49.288Z,3.00
2018-09-27T05:10:17.568Z,4.33
2018-09-27T05:12:45.859Z,6.10
2018-09-27T05:15:14.240Z,4.60
2018-09-27T05:17:42.516Z,4.97
2018-09-27T05:20:10.794Z,3.70
2018-09-27T05:22:39.144Z,3.55
2018-09-27T05:25:07.556Z,5.75
2018-09-27T05:27:36.067Z,5.15
2018-09-27T05:30:04.345Z,5.12
2018-09-27T05:32:32.604Z,3.72
2018-09-27T05:35:00.929Z,3.55
2018-09-27T05:37:29.461Z,3.45
2018-09-27T05:39:57.904Z,3.92
2018-09-27T05:42:26.586Z,9.80
2018-09-27T05:44:55.740Z,4.40
2018-09-27T05:47:24.070Z,8.13
2018-09-27T05:49:52.703Z,7.78
2018-09-27T05:52:20.947Z,4.72
2018-09-27T05:54:49.389Z,5.78
2018-09-27T05:57:17.724Z,4.33
2018-09-27T05:59:46.168Z,4.15
2018-09-27T06:02:14.629Z,9.75
2018-09-27T06:04:43.034Z,5.03
2018-09-27T06:07:11.618Z,4.33
2018-09-27T06:09:39.959Z,4.53
2018-09-27T06:12:08.184Z,3.95
2018-09-27T06:14:36.487Z,3.52
2018-09-27T06:17:04.815Z,4.30
2018-09-27T06:19:34.407Z,4.62
2018-09-27T06:22:02.711Z,4.08
2018-09-27T06:24:31.143Z,3.47
2018-09-27T06:26:59.475Z,3.27
2018-09-27T06:29:28.001Z,3.52
2018-09-27T06:31:56.355Z,5.17
2018-09-27T06:34:24.642Z,3.55
2018-09-27T06:36:52.964Z,3.00
2018-09-27T06:39:21.496Z,3.52
2018-09-27T06:41:49.859Z,3.45
2018-09-27T06:44:18.173Z,3.83
2018-09-27T06:46:48.542Z,3.25
2018-09-27T06:49:16.842Z,3.15
2018-09-27T06:51:45.372Z,3.52
2018-09-27T06:54:13.834Z,3.40
2018-09-27T06:56:42.436Z,5.47
2018-09-27T06:59:11.974Z,4.50
2018-09-27T07:01:41.749Z,3.62
2018-09-27T07:04:11.075Z,3.50
2018-09-27T07:06:43.298Z,3.47
2018-09-27T07:09:13.072Z,3.65
2018-09-27T07:11:43.402Z,3.60
2018-09-27T07:14:16.262Z,3.90
2018-09-27T07:16:45.048Z,4.78
2018-09-27T07:19:13.452Z,3.90
2018-09-27T07:21:43.028Z,3.60
2018-09-27T07:24:11.458Z,3.70
2018-09-27T07:26:39.952Z,5.00
2018-09-27T07:29:08.498Z,4.15
2018-09-27T07:31:36.800Z,4.37
2018-09-27T07:34:05.274Z,3.72
2018-09-27T07:36:35.765Z,3.92
2018-09-27T07:39:06.834Z,4.12
2018-09-27T07:41:35.387Z,3.75
2018-09-27T07:44:03.782Z,3.83
2018-09-27T07:46:32.194Z,4.03
2018-09-27T07:49:00.555Z,3.90
2018-09-27T07:51:28.871Z,3.87
2018-09-27T07:53:57.158Z,4.15
2018-09-27T07:56:25.670Z,4.08
2018-09-27T07:58:54.348Z,4.47
2018-09-27T08:01:23.281Z,3.95
2018-09-27T08:03:51.728Z,4.03
2018-09-27T08:06:20.260Z,4.12
2018-09-27T08:08:53.835Z,3.95
2018-09-27T08:11:23.473Z,3.70
2018-09-27T08:13:54.348Z,3.90
2018-09-27T08:16:23.109Z,4.33
2018-09-27T08:18:51.561Z,3.65
2018-09-27T08:21:19.914Z,3.98
2018-09-27T08:23:48.136Z,3.50
2018-09-27T08:26:16.633Z,3.80
2018-09-27T08:28:45.574Z,3.77
2018-09-27T08:31:14.688Z,3.60
2018-09-27T08:33:43.309Z,3.72
2018-09-27T08:36:11.730Z,4.12
2018-09-27T08:38:40.870Z,3.67
2018-09-27T08:41:09.277Z,3.35
2018-09-27T08:43:37.830Z,3.98
2018-09-27T08:46:06.262Z,3.80
2018-09-27T08:48:34.589Z,3.90
2018-09-27T08:51:03.139Z,3.40
2018-09-27T08:53:31.549Z,4.22
2018-09-27T08:56:00.882Z,3.47
2018-09-27T08:58:29.509Z,3.45
2018-09-27T09:00:58.240Z,3.60
2018-09-27T09:03:26.897Z,3.40
2018-09-27T09:05:55.279Z,4.20
2018-09-27T09:08:23.580Z,3.45
2018-09-27T09:10:51.898Z,4.03
2018-09-27T09:13:20.147Z,3.27
2018-09-27T09:15:48.629Z,3.50
2018-09-27T09:18:17.256Z,3.33
2018-09-27T09:20:46.003Z,3.20
2018-09-27T09:23:14.350Z,3.27
2018-09-27T09:25:42.827Z,2.98
2018-09-27T09:28:11.143Z,3.40
2018-09-27T09:30:39.410Z,3.55
2018-09-27T09:33:07.780Z,3.20
2018-09-27T09:35:36.206Z,3.40
2018-09-27T09:38:04.590Z,3.37
2018-09-27T09:40:32.905Z,3.12
2018-09-27T09:43:01.893Z,3.30
2018-09-27T09:45:30.858Z,3.52
2018-09-27T09:47:59.200Z,3.35
2018-09-27T09:50:27.535Z,3.17
2018-09-27T09:52:55.840Z,3.22
2018-09-27T09:55:24.085Z,2.90
2018-09-27T09:57:52.376Z,3.20
2018-09-27T10:00:20.670Z,2.75
2018-09-27T10:02:48.954Z,2.98
2018-09-27T10:05:17.239Z,2.90
2018-09-27T10:07:45.542Z,3.37
2018-09-27T10:10:13.846Z,3.58
2018-09-27T10:12:42.611Z,2.83
2018-09-27T10:15:11.029Z,3.12
2018-09-27T10:17:39.733Z,3.10
2018-09-27T10:20:07.999Z,3.02
2018-09-27T10:22:36.472Z,3.00
2018-09-27T10:25:04.779Z,3.42
2018-09-27T10:27:33.210Z,2.92
2018-09-27T10:30:01.513Z,2.77
2018-09-27T10:32:29.941Z,3.47
2018-09-27T10:34:58.465Z,3.12
2018-09-27T10:37:26.722Z,3.47
2018-09-27T10:39:54.998Z,3.00
2018-09-27T10:42:23.347Z,2.83
2018-09-27T10:44:51.645Z,2.70
2018-09-27T10:47:20.339Z,2.67
2018-09-27T10:49:48.974Z,2.75
2018-09-27T10:52:18.001Z,2.80
2018-09-27T10:54:47.101Z,2.50
2018-09-27T10:57:15.682Z,2.75
2018-09-27T10:59:44.011Z,2.62
2018-09-27T11:02:12.233Z,2.67
2018-09-27T11:04:40.670Z,2.77
2018-09-27T11:07:09.004Z,2.83
2018-09-27T11:09:37.627Z,2.40
2018-09-27T11:12:05.894Z,2.50
2018-09-27T11:14:34.240Z,2.62
2018-09-27T11:17:02.725Z,2.70
2018-09-27T11:19:30.994Z,2.67
2018-09-27T11:21:59.329Z,2.70
2018-09-27T11:24:27.594Z,2.92
2018-09-27T11:26:56.015Z,2.47
2018-09-27T11:29:30.382Z,2.80
2018-09-27T11:32:04.314Z,2.60
2018-09-27T11:34:32.571Z,2.40
2018-09-27T11:37:00.931Z,2.45
2018-09-27T11:39:29.599Z,2.33
2018-09-27T11:41:58.323Z,3.00
2018-09-27T11:44:28.355Z,2.85
2018-09-27T11:46:57.148Z,2.60
2018-09-27T11:49:32.290Z,2.37
2018-09-27T11:52:00.770Z,2.80
2018-09-27T11:54:29.309Z,2.67
2018-09-27T11:56:58.148Z,2.77
2018-09-27T11:59:27.135Z,2.30
2018-09-27T12:01:55.731Z,2.83
2018-09-27T12:04:24.066Z,2.85
2018-09-27T12:06:52.385Z,2.60
2018-09-27T12:09:20.671Z,2.40
2018-09-27T12:11:49.126Z,2.58
2018-09-27T12:14:17.752Z,2.50
2018-09-27T12:16:46.313Z,2.52
2018-09-27T12:19:14.545Z,2.50
2018-09-27T12:21:43.730Z,2.55
2018-09-27T12:24:12.122Z,2.70
2018-09-27T12:26:40.407Z,2.30
2018-09-27T12:29:08.940Z,2.27
2018-09-27T12:31:37.642Z,2.92
2018-09-27T12:34:06.257Z,2.60
2018-09-27T12:36:36.259Z,2.50
2018-09-27T12:39:07.248Z,2.77
2018-09-27T12:41:36.205Z,2.30
2018-09-27T12:44:04.525Z,2.65
2018-09-27T12:46:33.535Z,2.60
2018-09-27T12:49:01.967Z,3.20
2018-09-27T12:51:30.543Z,2.60
2018-09-27T12:53:58.826Z,2.47
2018-09-27T12:56:27.252Z,2.58
2018-09-27T12:58:55.655Z,2.40
2018-09-27T13:01:24.289Z,2.33
2018-09-27T13:03:53.620Z,2.67
2018-09-27T13:06:22.088Z,2.37
2018-09-27T13:08:51.782Z,2.62
2018-09-27T13:11:20.163Z,2.37
2018-09-27T13:13:48.715Z,2.12
2018-09-27T13:16:18.395Z,3.27
2018-09-27T13:18:46.710Z,3.47
2018-09-27T13:21:15.812Z,2.70
2018-09-27T13:23:44.303Z,2.40
2018-09-27T13:26:12.998Z,2.50
2018-09-27T13:28:41.652Z,2.85
2018-09-27T13:31:14.704Z,3.08
2018-09-27T13:33:45.822Z,2.60
2018-09-27T13:36:14.542Z,2.40
2018-09-27T13:38:43.658Z,2.20
2018-09-27T13:41:12.314Z,2.40
2018-09-27T13:43:40.780Z,2.77
2018-09-27T13:46:09.159Z,2.10
2018-09-27T13:48:37.562Z,2.20
2018-09-27T13:51:06.074Z,2.12
2018-09-27T13:53:34.778Z,1.90
2018-09-27T13:56:03.212Z,2.60
2018-09-27T13:58:31.775Z,2.30
2018-09-27T14:01:00.160Z,2.50
2018-09-27T14:03:28.511Z,2.10
2018-09-27T14:05:56.897Z,2.40
2018-09-27T14:08:25.440Z,2.17
2018-09-27T14:10:53.784Z,2.58
2018-09-27T14:13:22.403Z,1.92
2018-09-27T14:15:50.983Z,2.12
2018-09-27T14:18:21.524Z,2.15
2018-09-27T14:20:50.117Z,2.20
2018-09-27T14:23:18.399Z,2.17
2018-09-27T14:25:46.727Z,2.15
2018-09-27T14:28:14.953Z,2.33
2018-09-27T14:30:43.239Z,2.35
2018-09-27T14:33:11.473Z,2.40
2018-09-27T14:35:39.790Z,2.20
2018-09-27T14:38:08.396Z,1.87
2018-09-27T14:40:37.012Z,1.82
2018-09-27T14:43:06.210Z,1.92
2018-09-27T14:45:34.562Z,2.37
2018-09-27T14:48:02.887Z,2.47
2018-09-27T14:50:31.516Z,2.20
2018-09-27T14:53:00.263Z,2.58
2018-09-27T14:55:28.888Z,1.85
2018-09-27T14:57:57.791Z,2.15
2018-09-27T15:00:26.572Z,2.08
2018-09-27T15:02:55.260Z,2.02
2018-09-27T15:05:23.550Z,2.08
2018-09-27T15:07:51.893Z,1.85
2018-09-27T15:10:20.299Z,1.85
2018-09-27T15:12:48.575Z,2.42
2018-09-27T15:15:16.847Z,2.40
2018-09-27T15:17:45.226Z,2.00
2018-09-27T15:20:14.067Z,1.80
2018-09-27T15:22:43.003Z,1.80
2018-09-27T15:25:11.601Z,2.10
2018-09-27T15:27:40.441Z,2.15
2018-09-27T15:30:09.080Z,2.47
2018-09-27T15:32:45.236Z,1.82
2018-09-27T15:35:16.611Z,1.62
2018-09-27T15:37:45.062Z,1.80
2018-09-27T15:40:13.347Z,2.02
2018-09-27T15:42:41.644Z,2.02
2018-09-27T15:45:10.028Z,2.10
2018-09-27T15:47:38.394Z,2.00
2018-09-27T15:50:07.231Z,2.30
2018-09-27T15:52:35.692Z,6.75
2018-09-27T15:55:04.132Z,2.80
2018-09-27T15:57:32.424Z,11.80
2018-09-27T16:00:00.716Z,7.08
2018-09-27T16:02:28.997Z,6.42
2018-09-27T16:04:57.339Z,7.80
2018-09-27T16:07:25.624Z,6.33
2018-09-27T16:09:53.919Z,3.37
2018-09-27T16:12:22.187Z,7.80
2018-09-27T16:14:50.539Z,8.10
2018-09-27T16:17:18.805Z,6.28
2018-09-27T16:19:47.315Z,5.53
2018-09-27T16:22:15.589Z,7.35
2018-09-27T16:24:44.003Z,4.22
2018-09-27T16:27:12.427Z,7.72
2018-09-27T16:29:40.972Z,5.25
2018-09-27T16:32:09.269Z,6.22
2018-09-27T16:34:37.548Z,2.33
2018-09-27T16:37:06.041Z,5.58
2018-09-27T16:39:34.359Z,3.52
2018-09-27T16:42:02.725Z,6.20
2018-09-27T16:44:31.029Z,3.20
2018-09-27T16:46:59.415Z,4.83
2018-09-27T16:49:27.867Z,2.30
2018-09-27T16:51:56.203Z,5.17
2018-09-27T16:54:24.522Z,4.62
2018-09-27T16:56:52.801Z,2.35
2018-09-27T16:59:21.133Z,6.67
2018-09-27T17:01:49.478Z,3.75
2018-09-27T17:04:17.877Z,2.67
2018-09-27T17:06:46.240Z,3.72
2018-09-27T17:09:14.544Z,3.02
2018-09-27T17:11:42.852Z,3.52
2018-09-27T17:14:11.156Z,2.27
2018-09-27T17:16:39.450Z,3.37
2018-09-27T17:19:07.966Z,3.92
2018-09-27T17:21:38.188Z,7.62
2018-09-27T17:24:06.924Z,3.45
2018-09-27T17:26:35.252Z,2.83
2018-09-27T17:29:03.570Z,1.70
2018-09-27T17:31:31.884Z,2.15
2018-09-27T17:34:00.347Z,2.50
2018-09-27T17:36:28.630Z,2.72
2018-09-27T17:38:56.917Z,2.20
2018-09-27T17:41:25.193Z,3.65
2018-09-27T17:43:53.474Z,2.17
2018-09-27T17:46:21.760Z,4.37
2018-09-27T17:48:50.072Z,3.62
2018-09-27T17:51:18.542Z,2.52
2018-09-27T17:53:46.932Z,3.12
2018-09-27T17:56:15.234Z,2.85
2018-09-27T17:58:43.617Z,3.83
2018-09-27T18:01:11.801Z,3.12
2018-09-27T18:03:40.091Z,5.03
2018-09-27T18:06:08.385Z,2.90
2018-09-27T18:08:36.723Z,2.80
2018-09-27T18:11:05.071Z,4.65
2018-09-27T18:13:33.408Z,4.08
2018-09-27T18:16:01.693Z,5.08
2018-09-27T18:18:30.815Z,3.90
2018-09-27T18:20:59.134Z,19.10
2018-09-27T18:23:27.819Z,7.25
2018-09-27T18:25:56.149Z,5.22
2018-09-27T18:28:24.436Z,10.75
2018-09-27T18:30:52.715Z,12.23
2018-09-27T18:33:21.016Z,6.20
2018-09-27T18:35:49.392Z,8.08
2018-09-27T18:38:17.876Z,9.35
2018-09-27T18:40:46.612Z,13.05
2018-09-27T18:43:15.051Z,11.03
2018-09-27T18:45:43.300Z,12.90
2018-09-27T18:48:11.608Z,14.47
2018-09-27T18:50:39.891Z,11.33
2018-09-27T18:53:10.129Z,9.20
2018-09-27T18:55:38.400Z,18.23
2018-09-27T18:58:06.712Z,13.25
2018-09-27T19:00:35.023Z,14.40
2018-09-27T19:03:03.364Z,14.50
2018-09-27T19:05:31.654Z,13.98
2018-09-27T19:07:59.998Z,12.35
2018-09-27T19:10:28.310Z,13.58
2018-09-27T19:12:56.594Z,12.88
2018-09-27T19:15:24.900Z,14.90
2018-09-27T19:17:53.239Z,15.63
2018-09-27T19:20:21.522Z,16.25
2018-09-27T19:22:49.903Z,14.68
2018-09-27T19:25:18.111Z,15.28
2018-09-27T19:27:46.383Z,18.52
2018-09-27T19:30:14.684Z,12.82
2018-09-27T19:32:42.986Z,19.27
2018-09-27T19:35:11.382Z,24.82
2018-09-27T19:37:39.770Z,12.35
2018-09-27T19:40:08.040Z,9.83
2018-09-27T19:42:36.325Z,11.83
2018-09-27T19:45:05.022Z,10.65
2018-09-27T19:47:33.299Z,10.23
2018-09-27T19:50:02.094Z,10.88
2018-09-27T19:52:37.678Z,11.48
2018-09-27T19:55:06.044Z,9.10
2018-09-27T19:57:34.360Z,7.20
2018-09-27T20:00:04.051Z,11.55
2018-09-27T20:02:33.495Z,8.25
2018-09-27T20:05:01.822Z,7.12
2018-09-27T20:07:30.082Z,5.40
2018-09-27T20:09:58.395Z,7.03
2018-09-27T20:12:26.880Z,6.75
2018-09-27T20:14:55.277Z,4.50
2018-09-27T20:17:23.604Z,5.67
2018-09-27T20:19:51.888Z,4.55
2018-09-27T20:22:20.292Z,5.50
2018-09-27T20:24:48.561Z,3.77
2018-09-27T20:27:16.932Z,7.03
2018-09-27T20:29:45.225Z,3.37
2018-09-27T20:32:13.502Z,4.00
2018-09-27T20:34:41.831Z,4.83
2018-09-27T20:37:10.082Z,2.95
2018-09-27T20:39:38.433Z,4.97
2018-09-27T20:42:06.756Z,2.45
2018-09-27T20:44:35.114Z,3.58
2018-09-27T20:47:03.426Z,2.40
2018-09-27T20:49:32.435Z,4.15
2018-09-27T20:52:00.792Z,3.50
2018-09-27T20:54:29.078Z,2.50
2018-09-27T20:56:57.416Z,2.95
2018-09-27T20:59:25.752Z,2.80
2018-09-27T21:01:54.230Z,4.53
2018-09-27T21:04:22.561Z,3.22
2018-09-27T21:06:50.872Z,2.67
2018-09-27T21:09:19.256Z,2.80
2018-09-27T21:11:47.536Z,3.05
2018-09-27T21:14:15.818Z,2.72
2018-09-27T21:16:44.162Z,2.65
2018-09-27T21:19:14.590Z,2.72
2018-09-27T21:21:42.855Z,3.00
2018-09-27T21:24:11.132Z,3.05
2018-09-27T21:26:39.456Z,3.37
2018-09-27T21:29:07.713Z,3.08
2018-09-27T21:31:35.992Z,2.75
2018-09-27T21:34:04.283Z,2.83
2018-09-27T21:36:32.591Z,3.10
2018-09-27T21:39:00.868Z,2.87
2018-09-27T21:41:29.158Z,2.87
2018-09-27T21:43:57.433Z,2.95
2018-09-27T21:46:25.707Z,2.80
2018-09-27T21:48:53.957Z,2.65
2018-09-27T21:51:22.259Z,3.60
2018-09-27T21:53:53.088Z,2.83
2018-09-27T21:56:21.357Z,2.75
2018-09-27T21:58:49.731Z,3.25
2018-09-27T22:01:18.183Z,2.83
2018-09-27T22:03:46.477Z,2.77
2018-09-27T22:06:14.752Z,3.08
2018-09-27T22:08:43.087Z,2.72
2018-09-27T22:11:11.632Z,2.90
2018-09-27T22:13:39.949Z,2.95
2018-09-27T22:16:08.261Z,2.67
2018-09-27T22:18:37.047Z,2.77
2018-09-27T22:21:05.334Z,2.55
2018-09-27T22:23:33.648Z,2.92
2018-09-27T22:26:01.968Z,2.55
2018-09-27T22:28:30.248Z,2.87
2018-09-27T22:30:58.578Z,3.27
2018-09-27T22:33:26.876Z,2.45
2018-09-27T22:35:55.664Z,2.65
2018-09-27T22:38:23.962Z,3.33
2018-09-27T22:40:52.221Z,2.92
2018-09-27T22:43:20.525Z,2.50
2018-09-27T22:45:48.795Z,2.77
2018-09-27T22:48:17.091Z,2.30
2018-09-27T22:50:45.339Z,2.70
2018-09-27T22:53:13.709Z,2.65
2018-09-27T22:55:41.983Z,2.95
2018-09-27T22:58:10.265Z,2.12
2018-09-27T23:00:38.599Z,2.30
2018-09-27T23:03:06.933Z,2.70
2018-09-27T23:05:36.442Z,2.90
2018-09-27T23:08:04.731Z,2.67
2018-09-27T23:10:33.015Z,3.47
2018-09-27T23:13:01.321Z,2.30
2018-09-27T23:15:29.571Z,2.90
2018-09-27T23:17:57.863Z,2.72
2018-09-27T23:20:26.136Z,2.75
2018-09-27T23:22:54.446Z,3.50
2018-09-27T23:25:22.733Z,2.65
2018-09-27T23:27:51.130Z,2.12
2018-09-27T23:30:19.398Z,2.12
2018-09-27T23:32:47.702Z,2.50
2018-09-27T23:35:15.994Z,2.40
2018-09-27T23:37:44.282Z,2.17
2018-09-27T23:40:12.526Z,2.47
2018-09-27T23:42:40.806Z,3.00
2018-09-27T23:45:09.062Z,2.50
2018-09-27T23:47:37.358Z,2.55
2018-09-27T23:50:05.683Z,3.35
2018-09-27T23:52:33.971Z,2.12
2018-09-27T23:55:02.228Z,2.20
2018-09-27T23:57:30.522Z,2.30
2018-09-27T23:59:58.789Z,2.30
